Time;durP1;ratioP1;P1;durP2;ratioP2;P2;SDS_P1;SDS_P2;PMS_P1;PMS_P2;Temp;Humidity;BMP_temperature;BMP_pressure;BME280_temperature;BME280_humidity;BME280_pressure;Samples;Min_cycle;Max_cycle;Signal;HPM_P1;HPM_P2
2020/12/24 00:01:28;;;;;;;1.33;0.93;;;;;;;10.82;100.00;99828.06;637974;221;22709;-72
2020/12/24 00:03:56;;;;;;;3.23;0.80;;;;;;;11.02;100.00;99830.44;642813;221;27017;-72
2020/12/24 00:06:24;;;;;;;3.40;1.03;;;;;;;10.82;100.00;99828.06;630763;226;24807;-71
2020/12/24 00:08:52;;;;;;;1.50;1.20;;;;;;;10.71;100.00;99810.16;630847;225;24850;-70
2020/12/24 00:11:19;;;;;;;2.37;0.83;;;;;;;10.73;100.00;99797.81;643008;221;32653;-73
2020/12/24 00:13:47;;;;;;;1.73;0.80;;;;;;;10.62;100.00;99802.80;636584;225;24823;-73
2020/12/24 00:16:15;;;;;;;0.97;0.73;;;;;;;10.55;100.00;99810.87;649063;221;24829;-73
2020/12/24 00:18:43;;;;;;;2.70;1.10;;;;;;;10.52;100.00;99830.69;637463;224;24840;-73
2020/12/24 00:21:11;;;;;;;4.20;1.37;;;;;;;10.47;100.00;99816.05;640214;223;27025;-73
2020/12/24 00:23:39;;;;;;;3.83;1.20;;;;;;;10.57;100.00;99813.34;640616;223;24828;-73
2020/12/24 00:26:07;;;;;;;1.80;1.20;;;;;;;10.55;100.00;99823.05;639592;221;23879;-73
2020/12/24 00:28:34;;;;;;;4.13;1.33;;;;;;;10.72;100.00;99808.38;641123;221;24923;-73
2020/12/24 00:31:02;;;;;;;2.50;0.95;;;;;;;11.11;100.00;99796.45;628532;225;32828;-73
2020/12/24 00:33:31;;;;;;;3.03;1.20;;;;;;;10.80;100.00;99825.30;634109;225;22796;-73
2020/12/24 00:35:59;;;;;;;3.47;1.50;;;;;;;10.97;100.00;99825.69;642441;221;24792;-73
2020/12/24 00:38:28;;;;;;;1.07;0.97;;;;;;;10.69;100.00;99831.09;646534;221;25104;-73
2020/12/24 00:40:55;;;;;;;2.55;0.82;;;;;;;10.86;100.00;99816.88;636974;221;32810;-73
2020/12/24 00:43:23;;;;;;;1.90;1.00;;;;;;;10.68;100.00;99816.45;632904;225;22718;-73
2020/12/24 00:45:51;;;;;;;4.10;1.00;;;;;;;10.74;100.00;99825.45;639542;221;24853;-73
2020/12/24 00:48:19;;;;;;;3.00;1.20;;;;;;;10.84;100.00;99809.23;632884;224;24939;-73
2020/12/24 00:50:47;;;;;;;2.00;0.90;;;;;;;10.90;100.00;99800.80;635680;220;32832;-73
2020/12/24 00:53:15;;;;;;;5.63;1.00;;;;;;;10.91;100.00;99799.00;647396;221;24871;-73
2020/12/24 00:55:43;;;;;;;3.87;1.47;;;;;;;11.06;100.00;99782.30;626904;225;24884;-73
2020/12/24 00:58:11;;;;;;;4.03;1.10;;;;;;;10.90;100.00;99799.98;644406;221;24829;-73
2020/12/24 01:00:39;;;;;;;2.00;1.27;;;;;;;11.07;100.00;99799.05;628449;225;27185;-73
2020/12/24 01:03:07;;;;;;;2.80;1.20;;;;;;;11.11;100.00;99796.94;626492;225;33002;-74
2020/12/24 01:05:35;;;;;;;3.27;1.10;;;;;;;10.87;99.31;99788.59;646323;221;23652;-73
2020/12/24 01:08:03;;;;;;;3.33;1.10;;;;;;;10.91;97.87;99783.39;638677;225;25899;-73
2020/12/24 01:10:31;;;;;;;2.03;1.10;;;;;;;10.69;96.58;99791.27;651334;221;24806;-73
2020/12/24 01:12:59;;;;;;;1.40;1.10;;;;;;;10.83;97.00;99792.45;632661;225;27104;-73
2020/12/24 01:15:27;;;;;;;1.70;0.87;;;;;;;10.83;94.81;99789.86;634458;225;24819;-72
2020/12/24 01:17:54;;;;;;;3.90;0.90;;;;;;;10.84;93.27;99786.28;632500;225;32945;-73
2020/12/24 01:20:22;;;;;;;1.60;1.00;;;;;;;10.75;95.11;99808.87;638095;225;24214;-71
2020/12/24 01:22:50;;;;;;;2.20;0.90;;;;;;;10.78;94.03;99810.34;635910;221;43561;-71
2020/12/24 01:25:18;;;;;;;3.27;1.10;;;;;;;10.63;92.99;99805.72;638139;221;24829;-71
2020/12/24 01:27:46;;;;;;;6.87;0.90;;;;;;;10.64;90.85;99794.34;643175;221;23813;-71
2020/12/24 01:30:14;;;;;;;2.73;1.43;;;;;;;10.65;88.74;99801.17;644813;221;24805;-71
2020/12/24 01:32:42;;;;;;;5.10;1.10;;;;;;;10.64;87.00;99793.53;632571;225;24878;-71
2020/12/24 01:35:10;;;;;;;3.17;0.87;;;;;;;10.65;85.11;99808.98;644764;221;25921;-71
2020/12/24 01:37:38;;;;;;;7.93;1.00;;;;;;;10.63;83.60;99814.82;648973;221;24782;-71
2020/12/24 01:40:05;;;;;;;2.97;0.97;;;;;;;10.60;84.37;99832.04;639680;223;24941;-71
2020/12/24 01:42:33;;;;;;;5.60;0.90;;;;;;;10.54;83.60;99833.94;635727;225;24838;-71
2020/12/24 01:45:01;;;;;;;4.80;1.20;;;;;;;10.55;82.33;99839.95;640545;222;23859;-71
2020/12/24 01:47:29;;;;;;;6.33;1.10;;;;;;;10.58;81.80;99822.77;638499;222;24791;-71
2020/12/24 01:49:57;;;;;;;4.23;1.50;;;;;;;10.49;82.09;99834.90;647728;221;25033;-71
2020/12/24 01:52:31;;;;;;;4.00;1.02;;;;;;;10.52;82.01;99832.47;630493;225;32880;-71
2020/12/24 01:54:59;;;;;;;8.80;1.50;;;;;;;10.50;82.86;99836.53;631743;224;34368;-73
2020/12/24 01:57:27;;;;;;;3.20;0.90;;;;;;;10.51;81.16;99837.34;632155;225;32840;-73
2020/12/24 01:59:56;;;;;;;3.40;1.10;;;;;;;10.40;82.84;99842.31;634518;225;24758;-73
2020/12/24 02:02:24;;;;;;;5.10;1.23;;;;;;;10.32;82.74;99837.08;642193;221;24854;-73
2020/12/24 02:04:52;;;;;;;4.70;1.30;;;;;;;10.35;82.03;99838.06;649692;220;28002;-73
2020/12/24 02:07:19;;;;;;;7.70;1.23;;;;;;;10.34;81.85;99837.25;636749;223;37975;-73
2020/12/24 02:09:48;;;;;;;7.60;1.20;;;;;;;10.22;83.78;99826.77;614664;228;24836;-73
2020/12/24 02:12:16;;;;;;;8.23;1.23;;;;;;;10.13;85.33;99840.63;631343;226;24826;-73
2020/12/24 02:14:44;;;;;;;7.60;1.50;;;;;;;9.98;85.24;99835.16;648294;220;24776;-73
2020/12/24 02:17:12;;;;;;;6.23;1.13;;;;;;;9.87;86.69;99827.63;633973;225;24853;-73
2020/12/24 02:19:40;;;;;;;3.37;1.13;;;;;;;9.86;84.72;99814.31;642970;221;24807;-73
2020/12/24 02:22:08;;;;;;;7.13;1.47;;;;;;;9.83;85.45;99805.50;631637;225;24841;-73
2020/12/24 02:24:36;;;;;;;5.60;1.33;;;;;;;9.83;83.88;99797.70;625867;226;24908;-72
2020/12/24 02:27:05;;;;;;;7.77;1.20;;;;;;;9.75;85.62;99797.17;638375;221;27052;-73
2020/12/24 02:29:33;;;;;;;4.80;1.20;;;;;;;9.75;84.66;99794.58;626087;225;24891;-73
2020/12/24 02:32:00;;;;;;;4.70;1.30;;;;;;;9.69;84.61;99785.25;645658;221;23809;-73
2020/12/24 02:34:28;;;;;;;7.55;1.72;;;;;;;9.74;85.40;99791.65;636007;221;32842;-73
2020/12/24 02:36:56;;;;;;;4.20;1.07;;;;;;;9.67;85.46;99789.78;631279;225;22719;-73
2020/12/24 02:39:24;;;;;;;3.17;1.40;;;;;;;9.58;85.57;99790.70;634289;225;24871;-73
2020/12/24 02:41:52;;;;;;;4.60;1.37;;;;;;;9.58;85.51;99786.33;643644;221;24870;-73
2020/12/24 02:44:20;;;;;;;4.42;1.10;;;;;;;9.66;85.94;99781.67;637829;222;32724;-73
2020/12/24 02:46:47;;;;;;;2.93;1.10;;;;;;;9.58;86.41;99769.94;631950;225;22748;-73
2020/12/24 02:49:15;;;;;;;6.83;1.53;;;;;;;9.61;85.24;99767.03;635759;225;23856;-73
2020/12/24 02:51:43;;;;;;;9.30;1.80;;;;;;;9.60;84.95;99753.72;644588;222;25031;-73
2020/12/24 02:54:11;;;;;;;7.15;1.30;;;;;;;9.67;83.83;99750.84;627116;225;32782;-73
2020/12/24 02:56:39;;;;;;;3.97;1.03;;;;;;;9.61;86.19;99748.38;633016;225;23715;-73
2020/12/24 02:59:07;;;;;;;3.03;1.30;;;;;;;9.55;85.78;99748.14;631333;225;24827;-73
2020/12/24 03:01:35;;;;;;;4.73;1.03;;;;;;;9.50;86.45;99752.49;638127;221;24898;-73
2020/12/24 03:04:02;;;;;;;4.23;1.10;;;;;;;9.48;86.41;99753.95;642876;221;24788;-73
2020/12/24 03:06:31;;;;;;;9.40;1.30;;;;;;;9.48;86.08;99758.33;632586;225;23845;-73
2020/12/24 03:08:59;;;;;;;6.70;1.27;;;;;;;9.45;86.32;99765.93;632791;224;24934;-73
2020/12/24 03:11:26;;;;;;;6.50;1.33;;;;;;;9.45;87.82;99764.63;649803;221;24792;-73
2020/12/24 03:13:54;;;;;;;6.43;1.43;;;;;;;9.38;86.77;99753.20;645981;219;23858;-72
2020/12/24 03:16:22;;;;;;;5.47;1.43;;;;;;;9.34;88.44;99749.77;632282;225;24883;-72
2020/12/24 03:18:50;;;;;;;5.87;1.73;;;;;;;9.31;88.03;99748.28;641836;221;24844;-72
2020/12/24 03:21:18;;;;;;;4.80;1.63;;;;;;;9.21;90.36;99748.34;627160;225;24832;-72
2020/12/24 03:23:46;;;;;;;5.77;1.57;;;;;;;9.23;89.61;99746.42;633884;225;24842;-72
2020/12/24 03:26:13;;;;;;;10.27;1.37;;;;;;;9.27;91.32;99732.66;637126;224;25101;-72
2020/12/24 03:28:42;;;;;;;8.23;1.87;;;;;;;9.63;89.50;99723.55;629439;225;43863;-72
2020/12/24 03:31:10;;;;;;;7.13;1.23;;;;;;;9.44;89.86;99731.05;628316;222;23931;-72
2020/12/24 03:33:37;;;;;;;8.30;1.70;;;;;;;9.42;91.47;99722.08;643392;221;24868;-72
2020/12/24 03:36:05;;;;;;;10.82;1.60;;;;;;;9.74;90.79;99725.91;638688;221;32853;-72
2020/12/24 03:38:33;;;;;;;7.50;1.10;;;;;;;9.55;92.49;99743.77;642822;221;23696;-72
2020/12/24 03:41:01;;;;;;;5.57;1.20;;;;;;;9.58;93.08;99749.16;626213;225;24900;-72
2020/12/24 03:43:29;;;;;;;5.43;1.90;;;;;;;9.58;93.92;99754.36;629856;226;25155;-72
2020/12/24 03:45:57;;;;;;;6.20;1.33;;;;;;;9.23;95.46;99746.42;639703;222;24837;-72
2020/12/24 03:48:24;;;;;;;6.53;0.97;;;;;;;8.89;96.67;99756.63;645016;221;24885;-72
2020/12/24 03:50:52;;;;;;;4.63;1.20;;;;;;;8.88;99.28;99758.07;636644;221;32677;-72
2020/12/24 03:53:20;;;;;;;3.70;1.10;;;;;;;8.78;100.00;99752.93;640812;222;24823;-72
2020/12/24 03:55:48;;;;;;;2.70;0.87;;;;;;;8.74;100.00;99745.59;634767;225;24811;-71
2020/12/24 03:58:16;;;;;;;4.60;0.90;;;;;;;8.77;100.00;99748.70;640855;221;24822;-72
2020/12/24 04:00:44;;;;;;;4.10;1.17;;;;;;;8.60;100.00;99743.81;642148;222;24783;-72
2020/12/24 04:03:12;;;;;;;4.10;1.13;;;;;;;8.55;100.00;99743.41;633147;225;28060;-72
2020/12/24 04:05:40;;;;;;;3.40;1.10;;;;;;;8.51;100.00;99732.19;647782;221;24796;-72
2020/12/24 04:08:07;;;;;;;4.20;2.03;;;;;;;8.48;100.00;99733.78;646016;221;24874;-72
2020/12/24 04:10:35;;;;;;;6.20;1.33;;;;;;;8.37;100.00;99737.84;633816;225;24822;-72
2020/12/24 04:13:03;;;;;;;4.97;1.10;;;;;;;8.39;100.00;99726.86;644331;221;24863;-72
2020/12/24 04:15:31;;;;;;;8.50;1.47;;;;;;;8.38;100.00;99718.27;634358;222;24815;-71
2020/12/24 04:17:59;;;;;;;4.83;1.33;;;;;;;8.40;99.79;99723.30;632643;225;24879;-72
2020/12/24 04:20:27;;;;;;;5.00;1.57;;;;;;;8.42;99.59;99709.72;646501;221;24819;-71
2020/12/24 04:22:54;;;;;;;9.73;1.10;;;;;;;8.41;99.21;99715.38;631210;225;25998;-72
2020/12/24 04:25:22;;;;;;;3.87;1.23;;;;;;;8.61;100.00;99731.19;638559;223;24794;-72
2020/12/24 04:27:50;;;;;;;8.00;1.47;;;;;;;8.64;99.62;99728.78;637757;224;24800;-72
2020/12/24 04:30:18;;;;;;;6.50;0.80;;;;;;;8.69;99.91;99730.94;628529;225;24822;-72
2020/12/24 04:32:46;;;;;;;3.60;1.13;;;;;;;8.67;100.00;99732.86;628929;225;24877;-72
2020/12/24 04:35:14;;;;;;;3.13;1.30;;;;;;;8.67;100.00;99731.08;648071;220;24859;-71
2020/12/24 04:37:41;;;;;;;8.80;1.80;;;;;;;9.02;99.85;99719.15;644844;221;43372;-72
2020/12/24 04:40:09;;;;;;;7.17;1.40;;;;;;;9.06;100.00;99720.48;636641;225;24856;-72
2020/12/24 04:42:37;;;;;;;10.00;1.40;;;;;;;9.15;99.30;99707.92;642102;221;24777;-72
2020/12/24 04:45:05;;;;;;;5.73;1.10;;;;;;;9.15;99.52;99704.84;627797;226;24825;-72
2020/12/24 04:47:33;;;;;;;4.53;1.10;;;;;;;9.22;99.37;99695.98;642212;221;24783;-72
2020/12/24 04:50:01;;;;;;;6.07;1.00;;;;;;;9.24;99.45;99695.34;631743;225;24897;-72
2020/12/24 04:52:29;;;;;;;5.77;1.10;;;;;;;9.00;100.00;99692.52;641503;221;28003;-72
2020/12/24 04:54:57;;;;;;;4.40;1.23;;;;;;;8.89;100.00;99694.39;632167;225;24845;-71
2020/12/24 04:57:25;;;;;;;5.23;0.93;;;;;;;8.79;100.00;99693.63;646805;221;24787;-72
2020/12/24 04:59:53;;;;;;;2.10;0.87;;;;;;;8.79;100.00;99691.03;639588;221;23836;-71
2020/12/24 05:02:21;;;;;;;2.80;1.30;;;;;;;8.71;100.00;99674.56;627769;226;24868;-71
2020/12/24 05:04:52;;;;;;;7.40;1.30;;;;;;;8.86;100.00;99667.91;624851;225;33061;-73
2020/12/24 05:07:20;;;;;;;3.63;0.90;;;;;;;8.73;100.00;99664.89;641875;221;24816;-73
2020/12/24 05:09:50;;;;;;;1.70;1.07;;;;;;;8.74;100.00;99663.93;643577;221;24813;-73
2020/12/24 05:12:28;;;;;;;2.07;0.90;;;;;;;8.65;100.00;99659.61;643785;221;28017;-71
2020/12/24 05:14:56;;;;;;;2.73;0.90;;;;;;;8.65;100.00;99660.91;634061;222;24858;-71
2020/12/24 05:17:24;;;;;;;4.33;0.80;;;;;;;8.67;100.00;99652.02;637331;225;24822;-71
2020/12/24 05:20:00;;;;;;;1.03;0.60;;;;;;;8.78;100.00;99653.59;644242;221;24833;-71
2020/12/24 05:22:28;;;;;;;1.03;0.70;;;;;;;8.78;100.00;99642.73;646599;221;24806;-71
2020/12/24 05:25:06;;;;;;;1.00;0.67;;;;;;;8.74;100.00;99647.89;645821;221;24772;-71
2020/12/24 05:27:34;;;;;;;2.23;0.70;;;;;;;8.85;100.00;99646.35;640679;221;24945;-71
2020/12/24 05:30:02;;;;;;;5.30;0.90;;;;;;;8.77;100.00;99638.52;632841;225;24818;-71
2020/12/24 05:32:30;;;;;;;1.30;0.70;;;;;;;8.89;100.00;99634.74;634572;225;24863;-71
2020/12/24 05:35:04;;;;;;;2.83;0.67;;;;;;;8.92;100.00;99617.58;640803;220;25939;-72
2020/12/24 05:37:32;;;;;;;2.30;0.80;;;;;;;8.91;100.00;99617.25;634871;225;24817;-71
2020/12/24 05:40:00;;;;;;;2.30;0.70;;;;;;;9.04;100.00;99614.77;628244;225;34506;-71
2020/12/24 05:42:27;;;;;;;3.50;1.43;;;;;;;8.89;100.00;99616.59;638703;221;28054;-71
2020/12/24 05:44:55;;;;;;;2.10;0.70;;;;;;;9.02;100.00;99630.48;635780;225;24864;-71
2020/12/24 05:47:29;;;;;;;2.20;0.80;;;;;;;9.21;98.75;99617.81;642181;221;43548;-71
2020/12/24 05:49:57;;;;;;;0.70;0.70;;;;;;;8.94;99.07;99617.43;638678;224;24799;-71
2020/12/24 05:52:25;;;;;;;6.17;0.87;;;;;;;8.89;98.83;99630.04;632524;225;24868;-71
2020/12/24 05:54:53;;;;;;;2.57;0.80;;;;;;;8.89;98.68;99633.45;631265;225;24833;-71
2020/12/24 05:57:21;;;;;;;3.13;1.33;;;;;;;9.05;98.29;99639.25;645664;221;26956;-71
2020/12/24 05:59:49;;;;;;;2.50;0.80;;;;;;;8.90;99.65;99635.08;631262;225;24833;-71
2020/12/24 06:02:17;;;;;;;4.13;0.87;;;;;;;8.89;98.65;99616.59;633364;225;28032;-71
2020/12/24 06:04:48;;;;;;;2.47;1.00;;;;;;;8.97;96.16;99620.20;642545;222;24837;-71
2020/12/24 06:07:16;;;;;;;3.85;1.00;;;;;;;8.89;96.49;99615.30;634453;221;32862;-73
2020/12/24 06:09:44;;;;;;;5.40;0.90;;;;;;;8.74;95.97;99612.08;639478;221;24244;-73
2020/12/24 06:12:17;;;;;;;4.53;1.00;;;;;;;8.74;96.73;99618.56;631795;225;24846;-73
2020/12/24 06:14:47;;;;;;;3.03;0.73;;;;;;;8.71;97.11;99609.28;631625;223;23890;-73
2020/12/24 06:17:14;;;;;;;4.63;1.13;;;;;;;8.77;97.71;99613.88;641207;222;27988;-73
2020/12/24 06:19:42;;;;;;;4.23;1.17;;;;;;;8.72;97.88;99613.49;629481;225;24883;-73
2020/12/24 06:22:10;;;;;;;3.17;1.13;;;;;;;8.81;98.40;99608.73;641830;221;28238;-73
2020/12/24 06:24:39;;;;;;;3.30;1.30;;;;;;;8.79;97.99;99608.55;633192;226;24865;-73
2020/12/24 06:27:09;;;;;;;4.35;0.90;;;;;;;8.81;97.94;99602.73;640379;221;32887;-73
2020/12/24 06:29:37;;;;;;;5.27;1.27;;;;;;;8.71;98.16;99606.69;647375;221;23655;-73
2020/12/24 06:32:05;;;;;;;3.33;0.90;;;;;;;8.81;98.19;99594.95;641151;221;32698;-73
2020/12/24 06:34:33;;;;;;;3.60;0.80;;;;;;;8.78;98.13;99603.84;641942;222;25823;-73
2020/12/24 06:37:11;;;;;;;2.57;1.30;;;;;;;8.72;99.83;99614.80;644936;221;24789;-74
2020/12/24 06:39:40;;;;;;;4.67;0.93;;;;;;;8.57;98.98;99611.08;643951;221;24830;-73
2020/12/24 06:42:08;;;;;;;2.95;0.90;;;;;;;8.67;99.56;99612.32;638042;221;32791;-73
2020/12/24 06:44:45;;;;;;;6.07;1.20;;;;;;;8.50;99.60;99602.28;627619;225;23692;-73
2020/12/24 06:47:16;;;;;;;5.57;1.47;;;;;;;8.51;99.27;99609.91;636405;223;25340;-73
2020/12/24 06:49:43;;;;;;;4.53;1.05;;;;;;;8.57;99.81;99594.23;630152;224;32916;-74
2020/12/24 06:52:12;;;;;;;3.23;0.70;;;;;;;8.54;100.00;99604.91;628245;225;23704;-74
2020/12/24 06:54:39;;;;;;;4.10;1.03;;;;;;;8.50;99.67;99603.58;645416;221;24776;-71
2020/12/24 06:57:20;;;;;;;2.60;0.90;;;;;;;8.45;99.69;99596.25;639674;219;25157;-71
2020/12/24 06:59:47;;;;;;;7.10;1.27;;;;;;;8.48;99.66;99599.03;641311;221;24830;-71
2020/12/24 07:02:24;;;;;;;3.70;1.00;;;;;;;8.59;99.65;99596.23;627547;225;42994;-72
2020/12/24 07:04:52;;;;;;;1.87;1.00;;;;;;;8.48;100.00;99601.62;637735;225;24794;-71
2020/12/24 07:07:30;;;;;;;10.60;1.00;;;;;;;8.53;100.00;99602.80;636868;225;24967;-71
2020/12/24 07:09:58;;;;;;;5.58;1.30;;;;;;;8.63;99.94;99605.33;641717;221;43662;-72
2020/12/24 07:12:32;;;;;;;4.53;1.33;;;;;;;8.44;100.00;99600.26;649764;221;25932;-71
2020/12/24 07:15:20;;;;;;;3.87;1.03;;;;;;;8.23;100.00;99614.75;637331;225;24850;-71
2020/12/24 07:17:48;;;;;;;2.90;1.13;;;;;;;8.39;100.00;99612.84;636373;223;24799;-72
2020/12/24 07:20:18;;;;;;;3.13;0.80;;;;;;;8.18;100.00;99608.72;630650;225;24873;-70
2020/12/24 07:22:47;;;;;;;9.50;1.40;;;;;;;8.14;100.00;99612.54;629634;225;29258;-71
2020/12/24 07:25:15;;;;;;;1.90;0.73;;;;;;;8.16;100.00;99611.09;633945;225;25102;-71
2020/12/24 07:27:48;;;;;;;4.20;0.90;;;;;;;8.19;100.00;99611.65;638544;221;32953;-71
2020/12/24 07:30:21;;;;;;;3.20;1.40;;;;;;;8.16;100.00;99609.32;631265;225;23751;-72
2020/12/24 07:32:53;;;;;;;4.77;1.10;;;;;;;8.24;100.00;99615.09;642035;221;24867;-71
2020/12/24 07:35:21;;;;;;;3.97;1.30;;;;;;;8.12;100.00;99622.72;633032;225;25038;-72
2020/12/24 07:37:49;;;;;;;6.10;1.10;;;;;;;8.14;100.00;99625.97;635950;225;24862;-72
2020/12/24 07:40:17;;;;;;;2.93;0.93;;;;;;;8.19;100.00;99622.48;644444;221;24803;-71
2020/12/24 07:42:45;;;;;;;9.10;1.20;;;;;;;8.03;100.00;99621.34;650004;221;25539;-71
2020/12/24 07:45:13;;;;;;;4.80;1.00;;;;;;;8.30;100.00;99614.05;643438;221;34110;-71
2020/12/24 07:47:46;;;;;;;5.67;1.40;;;;;;;8.14;100.00;99619.02;642118;221;24875;-71
2020/12/24 07:50:14;;;;;;;5.87;1.00;;;;;;;8.03;100.00;99622.63;629568;225;24840;-71
2020/12/24 07:52:45;;;;;;;9.50;1.00;;;;;;;8.01;100.00;99624.52;632916;225;24954;-71
2020/12/24 07:55:13;;;;;;;3.67;0.87;;;;;;;8.04;100.00;99623.45;639079;223;24768;-72
2020/12/24 07:57:41;;;;;;;6.90;1.33;;;;;;;7.91;100.00;99633.31;640753;221;24826;-71
2020/12/24 08:00:09;;;;;;;4.10;1.30;;;;;;;8.08;100.00;99630.44;630209;225;24919;-72
2020/12/24 08:02:37;;;;;;;5.30;1.27;;;;;;;8.05;100.00;99627.66;645789;220;24797;-71
2020/12/24 08:05:05;;;;;;;3.57;1.00;;;;;;;7.99;100.00;99634.70;636943;224;24836;-72
2020/12/24 08:07:32;;;;;;;3.93;1.20;;;;;;;8.07;100.00;99639.98;649676;221;24845;-72
2020/12/24 08:10:10;;;;;;;4.70;1.97;;;;;;;8.14;100.00;99638.44;640442;220;24837;-72
2020/12/24 08:12:38;;;;;;;1.77;1.00;;;;;;;7.97;100.00;99634.84;647060;220;24819;-71
2020/12/24 08:15:12;;;;;;;5.60;1.17;;;;;;;7.94;100.00;99639.50;646241;221;25056;-71
2020/12/24 08:17:41;;;;;;;7.13;1.43;;;;;;;7.79;100.00;99643.02;640787;221;25010;-71
2020/12/24 08:20:09;;;;;;;5.93;1.10;;;;;;;7.71;100.00;99646.78;643807;221;24822;-71
2020/12/24 08:22:41;;;;;;;2.07;0.83;;;;;;;7.79;100.00;99652.56;633007;225;24825;-71
2020/12/24 08:25:08;;;;;;;3.27;1.13;;;;;;;7.78;100.00;99656.11;640506;223;24769;-71
2020/12/24 08:27:36;;;;;;;7.30;1.40;;;;;;;7.65;100.00;99659.81;642276;223;24777;-71
2020/12/24 08:30:05;;;;;;;3.47;1.33;;;;;;;7.71;100.00;99662.31;647458;221;24772;-71
2020/12/24 08:32:33;;;;;;;7.13;1.80;;;;;;;7.72;100.00;99660.88;642806;221;24827;-71
2020/12/24 08:35:09;;;;;;;4.10;1.00;;;;;;;7.66;100.00;99663.22;643830;221;24822;-71
2020/12/24 08:37:37;;;;;;;3.90;0.97;;;;;;;7.58;100.00;99669.08;644155;221;26894;-71
2020/12/24 08:40:16;;;;;;;3.63;1.20;;;;;;;7.52;100.00;99669.65;648258;221;24767;-70
2020/12/24 08:42:44;;;;;;;4.73;1.20;;;;;;;7.52;100.00;99670.12;634886;225;24857;-70
2020/12/24 08:45:13;;;;;;;5.90;1.30;;;;;;;7.50;100.00;99662.98;643602;221;24998;-71
2020/12/24 08:47:41;;;;;;;5.60;1.40;;;;;;;7.53;100.00;99667.40;634068;221;43640;-71
2020/12/24 08:50:09;;;;;;;5.73;1.47;;;;;;;7.54;100.00;99668.22;644395;221;23676;-71
2020/12/24 08:52:38;;;;;;;5.50;1.50;;;;;;;7.53;100.00;99666.59;633505;225;24947;-71
2020/12/24 08:55:06;;;;;;;3.70;1.47;;;;;;;7.54;100.00;99672.91;633234;225;24830;-70
2020/12/24 08:57:34;;;;;;;3.37;1.50;;;;;;;7.52;100.00;99678.70;642212;221;25954;-70
2020/12/24 09:00:01;;;;;;;7.83;1.43;;;;;;;7.55;100.00;99670.66;638216;223;24852;-70
2020/12/24 09:02:29;;;;;;;3.90;1.20;;;;;;;7.55;100.00;99677.12;646890;221;24791;-70
2020/12/24 09:04:57;;;;;;;2.87;1.40;;;;;;;7.57;100.00;99674.40;638164;224;24781;-70
2020/12/24 09:07:27;;;;;;;4.80;1.57;;;;;;;7.56;100.00;99676.65;643147;221;25432;-71
2020/12/24 09:10:01;;;;;;;3.97;0.83;;;;;;;7.55;100.00;99689.25;645459;220;25997;-70
2020/12/24 09:12:29;;;;;;;6.67;1.27;;;;;;;7.62;100.00;99685.98;638610;220;33324;-71
2020/12/24 09:15:00;;;;;;;4.20;1.10;;;;;;;7.69;100.00;99678.46;644291;218;23666;-71
2020/12/24 09:17:28;;;;;;;1.97;0.90;;;;;;;7.68;100.00;99683.30;633017;225;24841;-71
2020/12/24 09:20:07;;;;;;;1.97;0.80;;;;;;;7.70;100.00;99684.80;643448;221;24846;-71
2020/12/24 09:22:35;;;;;;;3.67;1.87;;;;;;;7.71;100.00;99676.55;642422;220;24766;-73
2020/12/24 09:25:04;;;;;;;2.37;0.70;;;;;;;7.72;100.00;99682.88;644313;220;24859;-73
2020/12/24 09:27:32;;;;;;;4.67;0.83;;;;;;;7.71;100.00;99689.48;632289;225;24894;-73
2020/12/24 09:30:00;;;;;;;6.90;1.70;;;;;;;7.66;100.00;99697.68;642489;221;24774;-73
2020/12/24 09:32:27;;;;;;;4.50;1.33;;;;;;;7.66;100.00;99696.87;645175;221;24897;-73
2020/12/24 09:34:55;;;;;;;3.43;0.80;;;;;;;7.74;100.00;99700.41;638829;221;32918;-72
2020/12/24 09:37:23;;;;;;;4.93;1.10;;;;;;;7.63;100.00;99697.15;645861;221;24770;-71
2020/12/24 09:39:51;;;;;;;5.27;1.40;;;;;;;7.68;100.00;99704.83;635700;225;24828;-70
2020/12/24 09:42:19;;;;;;;5.60;1.33;;;;;;;7.74;100.00;99699.11;640523;223;23848;-71
2020/12/24 09:44:47;;;;;;;2.70;0.87;;;;;;;7.72;100.00;99699.70;641092;222;24806;-70
2020/12/24 09:47:15;;;;;;;1.60;0.87;;;;;;;7.81;100.00;99694.66;626168;225;24939;-70
2020/12/24 09:49:43;;;;;;;2.90;1.10;;;;;;;7.82;100.00;99704.05;644185;220;24802;-71
2020/12/24 09:52:11;;;;;;;1.62;0.75;;;;;;;7.80;100.00;99706.78;622179;225;33062;-71
2020/12/24 09:54:38;;;;;;;0.70;0.70;;;;;;;7.85;100.00;99711.05;639305;221;23707;-71
2020/12/24 09:57:06;;;;;;;1.23;0.80;;;;;;;7.86;100.00;99711.86;630858;225;24858;-71
2020/12/24 09:59:34;;;;;;;3.23;0.70;;;;;;;7.93;100.00;99714.25;633306;225;24817;-71
2020/12/24 10:02:02;;;;;;;3.50;0.80;;;;;;;7.91;100.00;99711.80;647199;221;27992;-71
2020/12/24 10:04:30;;;;;;;0.83;0.70;;;;;;;7.89;100.00;99714.20;629672;225;24928;-71
2020/12/24 10:06:58;;;;;;;2.93;0.80;;;;;;;7.90;100.00;99713.23;646570;221;25092;-71
2020/12/24 10:09:26;;;;;;;2.70;0.70;;;;;;;7.91;100.00;99723.45;645453;221;24853;-70
2020/12/24 10:11:54;;;;;;;2.20;0.80;;;;;;;7.83;100.00;99716.03;636606;225;24832;-71
2020/12/24 10:14:22;;;;;;;1.80;0.67;;;;;;;7.89;100.00;99726.66;641457;221;24848;-71
2020/12/24 10:16:50;;;;;;;2.43;0.90;;;;;;;7.88;100.00;99712.53;631071;225;24894;-71
2020/12/24 10:19:18;;;;;;;1.80;0.90;;;;;;;7.81;100.00;99719.25;641022;223;24784;-71
2020/12/24 10:21:45;;;;;;;0.97;0.60;;;;;;;7.92;100.00;99716.50;635150;223;24872;-71
2020/12/24 10:24:13;;;;;;;0.97;0.80;;;;;;;7.92;100.00;99721.20;633571;224;24876;-71
2020/12/24 10:26:41;;;;;;;1.20;0.60;;;;;;;7.89;100.00;99719.37;633348;225;24852;-70
2020/12/24 10:29:09;;;;;;;2.10;0.80;;;;;;;7.89;100.00;99724.55;636759;225;26124;-70
2020/12/24 10:31:41;;;;;;;1.70;0.63;;;;;;;7.86;100.00;99737.27;629621;225;24816;-70
2020/12/24 10:34:09;;;;;;;2.93;0.83;;;;;;;7.85;100.00;99739.52;644533;221;24794;-70
2020/12/24 10:36:37;;;;;;;1.10;0.60;;;;;;;7.87;100.00;99731.62;646213;221;25978;-70
2020/12/24 10:39:07;;;;;;;1.47;0.97;;;;;;;7.91;100.00;99731.70;632921;225;24905;-70
2020/12/24 10:41:34;;;;;;;0.87;0.80;;;;;;;7.90;100.00;99731.36;634009;225;24911;-71
2020/12/24 10:44:02;;;;;;;1.20;0.70;;;;;;;7.91;100.00;99722.64;644439;221;24808;-70
2020/12/24 10:46:30;;;;;;;1.20;0.73;;;;;;;7.88;100.00;99711.24;632398;225;24857;-70
2020/12/24 10:48:58;;;;;;;1.50;0.70;;;;;;;7.87;100.00;99705.73;643290;221;24791;-70
2020/12/24 10:51:26;;;;;;;3.13;0.80;;;;;;;7.92;100.00;99713.91;629449;225;24858;-70
2020/12/24 10:53:53;;;;;;;1.67;0.80;;;;;;;7.90;100.00;99724.89;647249;221;24795;-70
2020/12/24 10:56:21;;;;;;;0.60;0.60;;;;;;;7.92;100.00;99724.27;644386;221;26853;-71
2020/12/24 10:58:49;;;;;;;3.83;0.83;;;;;;;7.88;100.00;99725.48;647630;221;24775;-70
2020/12/24 11:01:18;;;;;;;4.67;1.10;;;;;;;7.84;100.00;99731.91;635537;222;24828;-70
2020/12/24 11:03:46;;;;;;;1.20;0.70;;;;;;;7.83;100.00;99722.50;642007;221;24855;-70
2020/12/24 11:06:16;;;;;;;2.73;0.90;;;;;;;7.82;100.00;99721.69;643205;221;24838;-70
2020/12/24 11:08:44;;;;;;;2.87;0.80;;;;;;;7.84;100.00;99721.55;630753;225;24859;-70
2020/12/24 11:11:12;;;;;;;1.00;0.67;;;;;;;7.81;100.00;99724.42;632174;225;24879;-70
2020/12/24 11:13:41;;;;;;;0.80;0.77;;;;;;;7.79;100.00;99725.05;631009;225;24856;-71
2020/12/24 11:16:09;;;;;;;2.10;1.00;;;;;;;7.86;100.00;99728.69;649143;221;24781;-71
2020/12/24 11:18:38;;;;;;;1.50;0.90;;;;;;;7.85;100.00;99724.47;632246;225;24833;-70
2020/12/24 11:21:05;;;;;;;2.37;1.20;;;;;;;7.78;100.00;99727.30;644234;221;24787;-70
2020/12/24 11:23:32;;;;;;;3.50;0.70;;;;;;;7.76;100.00;99727.92;635639;225;24944;-71
2020/12/24 11:26:00;;;;;;;1.00;0.70;;;;;;;7.72;100.00;99732.05;627668;225;24868;-71
2020/12/24 11:28:28;;;;;;;1.73;0.77;;;;;;;7.75;100.00;99737.45;628071;225;25516;-70
2020/12/24 11:30:56;;;;;;;2.83;0.93;;;;;;;7.78;100.00;99738.95;634517;225;24846;-71
2020/12/24 11:33:24;;;;;;;1.90;0.77;;;;;;;7.78;100.00;99736.36;644182;219;24827;-71
2020/12/24 11:35:52;;;;;;;1.40;0.80;;;;;;;7.83;100.00;99727.69;631357;224;25947;-71
2020/12/24 11:38:20;;;;;;;0.63;0.63;;;;;;;7.83;100.00;99723.32;644420;220;24831;-70
2020/12/24 11:40:48;;;;;;;2.17;0.80;;;;;;;7.71;100.00;99734.78;643701;220;24994;-71